Woody Creek, Colorado
Current Conditions -  °F | °C
As of 6:42 AM on Sunday 23 Nov 2014 (Local Time) from KASE Reporting Station
Light Snow Light Snow  
Wind Chill: 17°   Ceiling: 2900
Heat Index: 25°   Visibility: 6mi
Dew Point: 22°   Wind: 7mph
Humidity: 88%   Direction: 10°N
Pressure: 29.81"   Gusts: NA
Location:  39.28°N, 106.89°W
Report Text: KASE 231342Z 01006KT 6SM -SN BR SCT010 SCT017 OVC029 M04/M06 A2981 RMK AO2 P0001 T10391056
Loading
Personal Weather Stations






























Interactive Weather Map New forecast layout! Learn more

10-Day Weather Forecast

Advertisements
Track Severe Weather on mobile